Terminal Aerodrome Forecast
Issued by NWS

Home | Current Version | Previous Version | Text Only | Print | Product List | Glossary On
Versions: 1 2 3 4 5 6 7 8 9 10 11 12 13 14 15
720
FTUS43 KSGF 061611 AAD
TAFJLN
TAF AMD
KJLN 061611Z 0616/0712 36012G21KT P6SM SCT015 BKN070
     FM061700 35012KT P6SM SCT140
     FM062200 35007KT P6SM FEW200
     FM070100 VRB03KT P6SM BKN250=

USA.gov is the U.S. government's official web portal to all federal, state and local government web resources and services.